sensor_id;sensor_type;location;lat;lon;timestamp;temperature;humidity
23147;DHT22;11742;53.532;-1.478;2024-02-16T00:02:21;16.90;99.90
23147;DHT22;11742;53.532;-1.478;2024-02-16T00:05:08;16.90;99.90
23147;DHT22;11742;53.532;-1.478;2024-02-16T00:07:55;16.90;99.90
23147;DHT22;11742;53.532;-1.478;2024-02-16T00:10:41;16.90;99.90
23147;DHT22;11742;53.532;-1.478;2024-02-16T00:13:26;16.90;99.90
23147;DHT22;11742;53.532;-1.478;2024-02-16T00:16:15;16.90;99.90
23147;DHT22;11742;53.532;-1.478;2024-02-16T00:19:01;16.90;99.90
23147;DHT22;11742;53.532;-1.478;2024-02-16T00:21:47;16.80;99.90
23147;DHT22;11742;53.532;-1.478;2024-02-16T00:24:34;16.80;99.90
23147;DHT22;11742;53.532;-1.478;2024-02-16T00:27:20;16.80;99.90
23147;DHT22;11742;53.532;-1.478;2024-02-16T00:30:07;16.80;99.90
23147;DHT22;11742;53.532;-1.478;2024-02-16T00:32:53;16.80;99.90
23147;DHT22;11742;53.532;-1.478;2024-02-16T00:35:38;16.80;99.90
23147;DHT22;11742;53.532;-1.478;2024-02-16T00:38:23;16.80;99.90
23147;DHT22;11742;53.532;-1.478;2024-02-16T00:41:07;16.80;99.90
23147;DHT22;11742;53.532;-1.478;2024-02-16T00:43:52;16.70;99.90
23147;DHT22;11742;53.532;-1.478;2024-02-16T00:46:38;16.70;99.90
23147;DHT22;11742;53.532;-1.478;2024-02-16T00:49:24;16.70;99.90
23147;DHT22;11742;53.532;-1.478;2024-02-16T00:52:09;16.70;99.90
23147;DHT22;11742;53.532;-1.478;2024-02-16T00:55:00;16.70;99.90
23147;DHT22;11742;53.532;-1.478;2024-02-16T00:57:44;16.70;99.90
23147;DHT22;11742;53.532;-1.478;2024-02-16T01:00:30;16.70;99.90
23147;DHT22;11742;53.532;-1.478;2024-02-16T01:03:19;16.60;99.90
23147;DHT22;11742;53.532;-1.478;2024-02-16T01:06:07;16.60;99.90
23147;DHT22;11742;53.532;-1.478;2024-02-16T01:08:55;16.60;99.90
23147;DHT22;11742;53.532;-1.478;2024-02-16T01:11:41;16.60;99.90
23147;DHT22;11742;53.532;-1.478;2024-02-16T01:14:33;16.60;99.90
23147;DHT22;11742;53.532;-1.478;2024-02-16T01:17:18;16.60;99.90
23147;DHT22;11742;53.532;-1.478;2024-02-16T01:20:04;16.60;99.90
23147;DHT22;11742;53.532;-1.478;2024-02-16T01:22:51;16.50;99.90
23147;DHT22;11742;53.532;-1.478;2024-02-16T01:25:42;16.60;99.90
23147;DHT22;11742;53.532;-1.478;2024-02-16T01:28:27;16.60;99.90
23147;DHT22;11742;53.532;-1.478;2024-02-16T01:31:12;16.50;99.90
23147;DHT22;11742;53.532;-1.478;2024-02-16T01:33:58;16.50;99.90
23147;DHT22;11742;53.532;-1.478;2024-02-16T01:36:43;16.50;99.90
23147;DHT22;11742;53.532;-1.478;2024-02-16T01:39:28;16.50;99.90
23147;DHT22;11742;53.532;-1.478;2024-02-16T01:42:12;16.40;99.90
23147;DHT22;11742;53.532;-1.478;2024-02-16T01:44:59;16.50;99.90
23147;DHT22;11742;53.532;-1.478;2024-02-16T01:47:47;16.40;99.90
23147;DHT22;11742;53.532;-1.478;2024-02-16T01:50:32;16.40;99.90
23147;DHT22;11742;53.532;-1.478;2024-02-16T01:53:17;16.40;99.90
23147;DHT22;11742;53.532;-1.478;2024-02-16T01:56:03;16.40;99.90
23147;DHT22;11742;53.532;-1.478;2024-02-16T01:58:49;16.40;99.90
23147;DHT22;11742;53.532;-1.478;2024-02-16T02:01:33;16.40;99.90
23147;DHT22;11742;53.532;-1.478;2024-02-16T02:04:17;16.30;99.90
23147;DHT22;11742;53.532;-1.478;2024-02-16T02:07:11;16.30;99.90
23147;DHT22;11742;53.532;-1.478;2024-02-16T02:09:56;16.30;99.90
23147;DHT22;11742;53.532;-1.478;2024-02-16T02:12:42;16.30;99.90
23147;DHT22;11742;53.532;-1.478;2024-02-16T02:15:28;16.30;99.90
23147;DHT22;11742;53.532;-1.478;2024-02-16T02:18:15;16.30;99.90
23147;DHT22;11742;53.532;-1.478;2024-02-16T02:21:00;16.30;99.90
23147;DHT22;11742;53.532;-1.478;2024-02-16T02:23:47;16.20;99.90
23147;DHT22;11742;53.532;-1.478;2024-02-16T02:26:35;16.20;99.90
23147;DHT22;11742;53.532;-1.478;2024-02-16T02:29:19;16.20;99.90
23147;DHT22;11742;53.532;-1.478;2024-02-16T02:32:05;16.20;99.90
23147;DHT22;11742;53.532;-1.478;2024-02-16T02:34:50;16.20;99.90
23147;DHT22;11742;53.532;-1.478;2024-02-16T02:37:35;16.20;99.90
23147;DHT22;11742;53.532;-1.478;2024-02-16T02:40:21;16.20;99.90
23147;DHT22;11742;53.532;-1.478;2024-02-16T02:43:06;16.20;99.90
23147;DHT22;11742;53.532;-1.478;2024-02-16T02:45:51;16.20;99.90
23147;DHT22;11742;53.532;-1.478;2024-02-16T02:48:35;16.10;99.90
23147;DHT22;11742;53.532;-1.478;2024-02-16T02:51:20;16.20;99.90
23147;DHT22;11742;53.532;-1.478;2024-02-16T02:54:05;16.10;99.90
23147;DHT22;11742;53.532;-1.478;2024-02-16T02:56:50;16.10;99.90
23147;DHT22;11742;53.532;-1.478;2024-02-16T02:59:34;16.10;99.90
23147;DHT22;11742;53.532;-1.478;2024-02-16T03:02:21;16.10;99.90
23147;DHT22;11742;53.532;-1.478;2024-02-16T03:05:07;16.10;99.90
23147;DHT22;11742;53.532;-1.478;2024-02-16T03:07:51;16.00;99.90
23147;DHT22;11742;53.532;-1.478;2024-02-16T03:10:38;16.00;99.90
23147;DHT22;11742;53.532;-1.478;2024-02-16T03:13:24;16.00;99.90
23147;DHT22;11742;53.532;-1.478;2024-02-16T03:16:08;16.00;99.90
23147;DHT22;11742;53.532;-1.478;2024-02-16T03:18:55;16.00;99.90
23147;DHT22;11742;53.532;-1.478;2024-02-16T03:21:40;16.00;99.90
23147;DHT22;11742;53.532;-1.478;2024-02-16T03:24:24;16.00;99.90
23147;DHT22;11742;53.532;-1.478;2024-02-16T03:27:08;16.00;99.90
23147;DHT22;11742;53.532;-1.478;2024-02-16T03:29:57;16.00;99.90
23147;DHT22;11742;53.532;-1.478;2024-02-16T03:32:41;16.00;99.90
23147;DHT22;11742;53.532;-1.478;2024-02-16T03:35:26;16.00;99.90
23147;DHT22;11742;53.532;-1.478;2024-02-16T03:38:11;15.90;99.90
23147;DHT22;11742;53.532;-1.478;2024-02-16T03:40:56;15.90;99.90
23147;DHT22;11742;53.532;-1.478;2024-02-16T03:43:42;15.90;99.90
23147;DHT22;11742;53.532;-1.478;2024-02-16T03:46:27;15.90;99.90
23147;DHT22;11742;53.532;-1.478;2024-02-16T03:49:11;15.90;99.90
23147;DHT22;11742;53.532;-1.478;2024-02-16T03:51:55;15.90;99.90
23147;DHT22;11742;53.532;-1.478;2024-02-16T03:54:41;15.90;99.90
23147;DHT22;11742;53.532;-1.478;2024-02-16T03:57:30;15.90;99.90
23147;DHT22;11742;53.532;-1.478;2024-02-16T04:00:14;15.90;99.90
23147;DHT22;11742;53.532;-1.478;2024-02-16T04:02:59;15.90;99.90
23147;DHT22;11742;53.532;-1.478;2024-02-16T04:05:43;15.90;99.90
23147;DHT22;11742;53.532;-1.478;2024-02-16T04:08:35;15.80;99.90
23147;DHT22;11742;53.532;-1.478;2024-02-16T04:11:21;15.80;99.90
23147;DHT22;11742;53.532;-1.478;2024-02-16T04:14:06;15.80;99.90
23147;DHT22;11742;53.532;-1.478;2024-02-16T04:16:52;15.80;99.90
23147;DHT22;11742;53.532;-1.478;2024-02-16T04:19:38;15.80;99.90
23147;DHT22;11742;53.532;-1.478;2024-02-16T04:22:23;15.80;99.90
23147;DHT22;11742;53.532;-1.478;2024-02-16T04:25:07;15.80;99.90
23147;DHT22;11742;53.532;-1.478;2024-02-16T04:27:53;15.80;99.90
23147;DHT22;11742;53.532;-1.478;2024-02-16T04:30:37;15.80;99.90
23147;DHT22;11742;53.532;-1.478;2024-02-16T04:33:21;15.80;99.90
23147;DHT22;11742;53.532;-1.478;2024-02-16T04:36:08;15.70;99.90
23147;DHT22;11742;53.532;-1.478;2024-02-16T04:38:52;15.70;99.90
23147;DHT22;11742;53.532;-1.478;2024-02-16T04:41:38;15.70;99.90
23147;DHT22;11742;53.532;-1.478;2024-02-16T04:44:24;15.70;99.90
23147;DHT22;11742;53.532;-1.478;2024-02-16T04:47:09;15.70;99.90
23147;DHT22;11742;53.532;-1.478;2024-02-16T04:49:55;15.70;99.90
23147;DHT22;11742;53.532;-1.478;2024-02-16T04:52:40;15.70;99.90
23147;DHT22;11742;53.532;-1.478;2024-02-16T04:55:24;15.70;99.90
23147;DHT22;11742;53.532;-1.478;2024-02-16T04:58:10;15.70;99.90
23147;DHT22;11742;53.532;-1.478;2024-02-16T05:00:58;15.70;99.90
23147;DHT22;11742;53.532;-1.478;2024-02-16T05:03:43;15.70;99.90
23147;DHT22;11742;53.532;-1.478;2024-02-16T05:06:31;15.60;99.90
23147;DHT22;11742;53.532;-1.478;2024-02-16T05:09:17;15.60;99.90
23147;DHT22;11742;53.532;-1.478;2024-02-16T05:12:02;15.60;99.90
23147;DHT22;11742;53.532;-1.478;2024-02-16T05:14:49;15.60;99.90
23147;DHT22;11742;53.532;-1.478;2024-02-16T05:17:34;15.60;99.90
23147;DHT22;11742;53.532;-1.478;2024-02-16T05:20:18;15.60;99.90
23147;DHT22;11742;53.532;-1.478;2024-02-16T05:23:04;15.60;99.90
23147;DHT22;11742;53.532;-1.478;2024-02-16T05:25:50;15.60;99.90
23147;DHT22;11742;53.532;-1.478;2024-02-16T05:28:35;15.60;99.90
23147;DHT22;11742;53.532;-1.478;2024-02-16T05:31:21;15.60;99.90
23147;DHT22;11742;53.532;-1.478;2024-02-16T05:34:05;15.60;99.90
23147;DHT22;11742;53.532;-1.478;2024-02-16T05:36:50;15.50;99.90
23147;DHT22;11742;53.532;-1.478;2024-02-16T05:39:38;15.50;99.90
23147;DHT22;11742;53.532;-1.478;2024-02-16T05:42:38;15.50;99.90
23147;DHT22;11742;53.532;-1.478;2024-02-16T05:45:23;15.50;99.90
23147;DHT22;11742;53.532;-1.478;2024-02-16T05:48:08;15.50;99.90
23147;DHT22;11742;53.532;-1.478;2024-02-16T05:50:59;15.50;99.90
23147;DHT22;11742;53.532;-1.478;2024-02-16T05:53:45;15.50;99.90
23147;DHT22;11742;53.532;-1.478;2024-02-16T05:56:31;15.40;99.90
23147;DHT22;11742;53.532;-1.478;2024-02-16T05:59:20;15.40;99.90
23147;DHT22;11742;53.532;-1.478;2024-02-16T06:02:06;15.40;99.90
23147;DHT22;11742;53.532;-1.478;2024-02-16T06:04:53;15.40;99.90
23147;DHT22;11742;53.532;-1.478;2024-02-16T06:07:39;15.40;99.90
23147;DHT22;11742;53.532;-1.478;2024-02-16T06:10:24;15.40;99.90
23147;DHT22;11742;53.532;-1.478;2024-02-16T06:13:08;15.40;99.90
23147;DHT22;11742;53.532;-1.478;2024-02-16T06:15:54;15.40;99.90
23147;DHT22;11742;53.532;-1.478;2024-02-16T06:18:41;15.30;99.90
23147;DHT22;11742;53.532;-1.478;2024-02-16T06:21:29;15.30;99.90
23147;DHT22;11742;53.532;-1.478;2024-02-16T06:24:13;15.30;99.90
23147;DHT22;11742;53.532;-1.478;2024-02-16T06:26:57;15.30;99.90
23147;DHT22;11742;53.532;-1.478;2024-02-16T06:29:42;15.30;99.90
23147;DHT22;11742;53.532;-1.478;2024-02-16T06:32:28;15.30;99.90
23147;DHT22;11742;53.532;-1.478;2024-02-16T06:35:13;15.20;99.90
23147;DHT22;11742;53.532;-1.478;2024-02-16T06:38:01;15.30;99.90
23147;DHT22;11742;53.532;-1.478;2024-02-16T06:40:46;15.20;99.90
23147;DHT22;11742;53.532;-1.478;2024-02-16T06:43:31;15.20;99.90
23147;DHT22;11742;53.532;-1.478;2024-02-16T06:46:15;15.20;99.90
23147;DHT22;11742;53.532;-1.478;2024-02-16T06:49:01;15.20;99.90
23147;DHT22;11742;53.532;-1.478;2024-02-16T06:51:46;15.20;99.90
23147;DHT22;11742;53.532;-1.478;2024-02-16T06:54:33;15.10;99.90
23147;DHT22;11742;53.532;-1.478;2024-02-16T06:57:17;15.10;99.90
23147;DHT22;11742;53.532;-1.478;2024-02-16T07:00:02;15.10;99.90
23147;DHT22;11742;53.532;-1.478;2024-02-16T07:02:47;15.10;99.90
23147;DHT22;11742;53.532;-1.478;2024-02-16T07:05:31;15.10;99.90
23147;DHT22;11742;53.532;-1.478;2024-02-16T07:08:17;15.10;99.90
23147;DHT22;11742;53.532;-1.478;2024-02-16T07:11:02;15.10;99.90
23147;DHT22;11742;53.532;-1.478;2024-02-16T07:13:47;15.10;99.90
23147;DHT22;11742;53.532;-1.478;2024-02-16T07:16:31;15.00;99.90
23147;DHT22;11742;53.532;-1.478;2024-02-16T07:19:16;15.00;99.90
23147;DHT22;11742;53.532;-1.478;2024-02-16T07:22:02;15.00;99.90
23147;DHT22;11742;53.532;-1.478;2024-02-16T07:24:50;15.00;99.90
23147;DHT22;11742;53.532;-1.478;2024-02-16T07:27:34;15.00;99.90
23147;DHT22;11742;53.532;-1.478;2024-02-16T07:30:19;14.90;99.90
23147;DHT22;11742;53.532;-1.478;2024-02-16T07:33:07;14.90;99.90
23147;DHT22;11742;53.532;-1.478;2024-02-16T07:35:54;14.90;99.90
23147;DHT22;11742;53.532;-1.478;2024-02-16T07:38:39;14.90;99.90
23147;DHT22;11742;53.532;-1.478;2024-02-16T07:41:24;14.90;99.90
23147;DHT22;11742;53.532;-1.478;2024-02-16T07:44:08;14.80;99.90
23147;DHT22;11742;53.532;-1.478;2024-02-16T07:46:53;14.80;99.90
23147;DHT22;11742;53.532;-1.478;2024-02-16T07:49:38;14.80;99.90
23147;DHT22;11742;53.532;-1.478;2024-02-16T07:52:23;14.80;99.90
23147;DHT22;11742;53.532;-1.478;2024-02-16T07:55:08;14.80;99.90
23147;DHT22;11742;53.532;-1.478;2024-02-16T07:57:52;14.70;99.90
23147;DHT22;11742;53.532;-1.478;2024-02-16T08:00:38;14.70;99.90
23147;DHT22;11742;53.532;-1.478;2024-02-16T08:03:22;14.70;99.90
23147;DHT22;11742;53.532;-1.478;2024-02-16T08:06:06;14.70;99.90
23147;DHT22;11742;53.532;-1.478;2024-02-16T08:08:52;14.70;99.90
23147;DHT22;11742;53.532;-1.478;2024-02-16T08:11:38;14.60;99.90
23147;DHT22;11742;53.532;-1.478;2024-02-16T08:14:23;14.60;99.90
23147;DHT22;11742;53.532;-1.478;2024-02-16T08:17:08;14.60;99.90
23147;DHT22;11742;53.532;-1.478;2024-02-16T08:19:53;14.60;99.90
23147;DHT22;11742;53.532;-1.478;2024-02-16T08:22:38;14.60;99.90
23147;DHT22;11742;53.532;-1.478;2024-02-16T08:25:22;14.50;99.90
23147;DHT22;11742;53.532;-1.478;2024-02-16T08:28:07;14.50;99.90
23147;DHT22;11742;53.532;-1.478;2024-02-16T08:30:51;14.50;99.90
23147;DHT22;11742;53.532;-1.478;2024-02-16T08:33:35;14.50;99.90
23147;DHT22;11742;53.532;-1.478;2024-02-16T08:36:22;14.50;99.90
23147;DHT22;11742;53.532;-1.478;2024-02-16T08:39:12;14.50;99.90
23147;DHT22;11742;53.532;-1.478;2024-02-16T08:41:57;14.50;99.90
23147;DHT22;11742;53.532;-1.478;2024-02-16T08:44:42;14.50;99.90
23147;DHT22;11742;53.532;-1.478;2024-02-16T08:47:27;14.50;99.90
23147;DHT22;11742;53.532;-1.478;2024-02-16T08:50:12;14.50;99.90
23147;DHT22;11742;53.532;-1.478;2024-02-16T08:52:58;14.60;99.90
23147;DHT22;11742;53.532;-1.478;2024-02-16T08:55:42;14.60;99.90
23147;DHT22;11742;53.532;-1.478;2024-02-16T08:58:28;14.60;99.90
23147;DHT22;11742;53.532;-1.478;2024-02-16T09:01:12;14.60;99.90
23147;DHT22;11742;53.532;-1.478;2024-02-16T09:04:01;14.60;99.90
23147;DHT22;11742;53.532;-1.478;2024-02-16T09:06:46;14.70;99.90
23147;DHT22;11742;53.532;-1.478;2024-02-16T09:09:31;14.70;99.90
23147;DHT22;11742;53.532;-1.478;2024-02-16T09:12:18;14.70;99.90
23147;DHT22;11742;53.532;-1.478;2024-02-16T09:15:06;14.70;99.90
23147;DHT22;11742;53.532;-1.478;2024-02-16T09:17:50;14.70;99.90
23147;DHT22;11742;53.532;-1.478;2024-02-16T09:20:35;14.70;99.90
23147;DHT22;11742;53.532;-1.478;2024-02-16T09:23:20;14.70;99.90
23147;DHT22;11742;53.532;-1.478;2024-02-16T09:26:05;14.70;99.90
23147;DHT22;11742;53.532;-1.478;2024-02-16T09:28:50;14.70;99.90
23147;DHT22;11742;53.532;-1.478;2024-02-16T09:31:34;14.80;99.90
23147;DHT22;11742;53.532;-1.478;2024-02-16T09:34:18;14.80;99.90
23147;DHT22;11742;53.532;-1.478;2024-02-16T09:37:03;14.80;99.90
23147;DHT22;11742;53.532;-1.478;2024-02-16T09:39:48;14.80;99.90
23147;DHT22;11742;53.532;-1.478;2024-02-16T09:42:32;14.80;99.90
23147;DHT22;11742;53.532;-1.478;2024-02-16T09:45:23;14.80;99.90
23147;DHT22;11742;53.532;-1.478;2024-02-16T09:48:10;14.80;99.90
23147;DHT22;11742;53.532;-1.478;2024-02-16T09:50:58;14.80;99.90
23147;DHT22;11742;53.532;-1.478;2024-02-16T09:53:50;14.90;99.90
23147;DHT22;11742;53.532;-1.478;2024-02-16T09:56:39;14.90;99.90
23147;DHT22;11742;53.532;-1.478;2024-02-16T09:59:26;14.90;99.90
23147;DHT22;11742;53.532;-1.478;2024-02-16T10:02:11;14.90;99.90
23147;DHT22;11742;53.532;-1.478;2024-02-16T10:04:55;14.90;99.90
23147;DHT22;11742;53.532;-1.478;2024-02-16T10:07:44;14.90;99.90
23147;DHT22;11742;53.532;-1.478;2024-02-16T10:10:28;14.90;99.90
23147;DHT22;11742;53.532;-1.478;2024-02-16T10:13:15;15.00;99.90
23147;DHT22;11742;53.532;-1.478;2024-02-16T10:16:10;14.90;99.90
23147;DHT22;11742;53.532;-1.478;2024-02-16T10:18:57;15.00;99.90
23147;DHT22;11742;53.532;-1.478;2024-02-16T10:21:49;15.00;99.90
23147;DHT22;11742;53.532;-1.478;2024-02-16T10:24:34;15.00;99.90
23147;DHT22;11742;53.532;-1.478;2024-02-16T10:27:21;15.00;99.90
23147;DHT22;11742;53.532;-1.478;2024-02-16T10:30:09;15.00;99.90
23147;DHT22;11742;53.532;-1.478;2024-02-16T10:32:54;15.10;99.90
23147;DHT22;11742;53.532;-1.478;2024-02-16T10:35:41;15.00;99.90
23147;DHT22;11742;53.532;-1.478;2024-02-16T10:38:27;15.10;99.90
23147;DHT22;11742;53.532;-1.478;2024-02-16T10:41:14;15.10;99.90
23147;DHT22;11742;53.532;-1.478;2024-02-16T10:44:00;15.10;99.90
23147;DHT22;11742;53.532;-1.478;2024-02-16T10:46:46;15.10;99.90
23147;DHT22;11742;53.532;-1.478;2024-02-16T10:49:30;15.10;99.90
23147;DHT22;11742;53.532;-1.478;2024-02-16T10:52:16;15.10;99.90
23147;DHT22;11742;53.532;-1.478;2024-02-16T10:55:04;15.10;99.90
23147;DHT22;11742;53.532;-1.478;2024-02-16T10:57:51;15.10;99.90
23147;DHT22;11742;53.532;-1.478;2024-02-16T11:00:57;15.20;99.90
23147;DHT22;11742;53.532;-1.478;2024-02-16T11:03:41;15.20;99.90
23147;DHT22;11742;53.532;-1.478;2024-02-16T11:06:25;15.20;99.90
23147;DHT22;11742;53.532;-1.478;2024-02-16T11:09:09;15.20;99.90
23147;DHT22;11742;53.532;-1.478;2024-02-16T11:11:58;15.20;99.90
23147;DHT22;11742;53.532;-1.478;2024-02-16T11:14:48;15.20;99.90
23147;DHT22;11742;53.532;-1.478;2024-02-16T11:17:36;15.30;99.90
23147;DHT22;11742;53.532;-1.478;2024-02-16T11:20:25;15.30;99.90
23147;DHT22;11742;53.532;-1.478;2024-02-16T11:23:12;15.30;99.90
23147;DHT22;11742;53.532;-1.478;2024-02-16T11:26:08;15.30;99.90
23147;DHT22;11742;53.532;-1.478;2024-02-16T11:28:58;15.30;99.90
23147;DHT22;11742;53.532;-1.478;2024-02-16T11:31:43;15.30;99.90
23147;DHT22;11742;53.532;-1.478;2024-02-16T11:34:29;15.30;99.90
23147;DHT22;11742;53.532;-1.478;2024-02-16T11:37:19;15.30;99.90
23147;DHT22;11742;53.532;-1.478;2024-02-16T11:40:06;15.30;99.90
23147;DHT22;11742;53.532;-1.478;2024-02-16T11:42:58;15.30;99.90
23147;DHT22;11742;53.532;-1.478;2024-02-16T11:45:45;15.30;99.90
23147;DHT22;11742;53.532;-1.478;2024-02-16T11:48:33;15.40;99.90
23147;DHT22;11742;53.532;-1.478;2024-02-16T11:51:19;15.40;99.90
23147;DHT22;11742;53.532;-1.478;2024-02-16T11:54:05;15.40;99.90
23147;DHT22;11742;53.532;-1.478;2024-02-16T11:56:53;15.40;99.90
23147;DHT22;11742;53.532;-1.478;2024-02-16T11:59:38;15.40;99.90
23147;DHT22;11742;53.532;-1.478;2024-02-16T12:02:24;15.50;99.90
23147;DHT22;11742;53.532;-1.478;2024-02-16T12:05:13;15.50;99.90
23147;DHT22;11742;53.532;-1.478;2024-02-16T12:08:05;15.50;99.90
23147;DHT22;11742;53.532;-1.478;2024-02-16T12:10:52;15.50;99.90
23147;DHT22;11742;53.532;-1.478;2024-02-16T12:13:40;15.50;99.90
23147;DHT22;11742;53.532;-1.478;2024-02-16T12:16:33;15.60;99.90
23147;DHT22;11742;53.532;-1.478;2024-02-16T12:19:19;15.60;99.90
23147;DHT22;11742;53.532;-1.478;2024-02-16T12:22:06;15.60;99.90
23147;DHT22;11742;53.532;-1.478;2024-02-16T12:24:53;15.60;99.90
23147;DHT22;11742;53.532;-1.478;2024-02-16T12:27:39;15.70;99.90
23147;DHT22;11742;53.532;-1.478;2024-02-16T12:30:25;15.70;99.90
23147;DHT22;11742;53.532;-1.478;2024-02-16T12:33:09;15.70;99.90
23147;DHT22;11742;53.532;-1.478;2024-02-16T12:35:53;15.70;99.90
23147;DHT22;11742;53.532;-1.478;2024-02-16T12:38:38;15.80;99.90
23147;DHT22;11742;53.532;-1.478;2024-02-16T12:41:25;15.80;99.90
23147;DHT22;11742;53.532;-1.478;2024-02-16T12:44:12;15.80;99.90
23147;DHT22;11742;53.532;-1.478;2024-02-16T12:46:57;15.90;99.90
23147;DHT22;11742;53.532;-1.478;2024-02-16T12:49:43;15.90;99.90
23147;DHT22;11742;53.532;-1.478;2024-02-16T12:52:28;15.90;99.90
23147;DHT22;11742;53.532;-1.478;2024-02-16T12:55:14;16.00;99.90
23147;DHT22;11742;53.532;-1.478;2024-02-16T12:58:03;16.00;99.90
23147;DHT22;11742;53.532;-1.478;2024-02-16T13:00:47;16.00;99.90
23147;DHT22;11742;53.532;-1.478;2024-02-16T13:03:36;16.10;99.90
23147;DHT22;11742;53.532;-1.478;2024-02-16T13:06:21;16.10;99.90
23147;DHT22;11742;53.532;-1.478;2024-02-16T13:09:09;16.10;99.90
23147;DHT22;11742;53.532;-1.478;2024-02-16T13:11:58;16.20;99.90
23147;DHT22;11742;53.532;-1.478;2024-02-16T13:14:45;16.20;99.90
23147;DHT22;11742;53.532;-1.478;2024-02-16T13:17:30;16.20;99.90
23147;DHT22;11742;53.532;-1.478;2024-02-16T13:20:14;16.30;99.90
23147;DHT22;11742;53.532;-1.478;2024-02-16T13:23:00;16.30;99.90
23147;DHT22;11742;53.532;-1.478;2024-02-16T13:25:44;16.30;99.90
23147;DHT22;11742;53.532;-1.478;2024-02-16T13:28:28;16.30;99.90
23147;DHT22;11742;53.532;-1.478;2024-02-16T13:31:15;16.40;99.90
23147;DHT22;11742;53.532;-1.478;2024-02-16T13:34:01;16.40;99.90
23147;DHT22;11742;53.532;-1.478;2024-02-16T13:36:46;16.40;99.90
23147;DHT22;11742;53.532;-1.478;2024-02-16T13:39:30;16.40;99.90
23147;DHT22;11742;53.532;-1.478;2024-02-16T13:42:14;16.50;99.90
23147;DHT22;11742;53.532;-1.478;2024-02-16T13:44:59;16.50;99.90
23147;DHT22;11742;53.532;-1.478;2024-02-16T13:47:44;16.60;99.90
23147;DHT22;11742;53.532;-1.478;2024-02-16T13:50:28;16.60;99.90
23147;DHT22;11742;53.532;-1.478;2024-02-16T13:53:14;16.60;99.90
23147;DHT22;11742;53.532;-1.478;2024-02-16T13:55:58;16.70;99.90
23147;DHT22;11742;53.532;-1.478;2024-02-16T13:58:48;16.70;99.90
23147;DHT22;11742;53.532;-1.478;2024-02-16T14:01:35;16.80;99.90
23147;DHT22;11742;53.532;-1.478;2024-02-16T14:04:21;16.80;99.90
23147;DHT22;11742;53.532;-1.478;2024-02-16T14:07:06;16.90;99.90
23147;DHT22;11742;53.532;-1.478;2024-02-16T14:09:50;16.90;99.90
23147;DHT22;11742;53.532;-1.478;2024-02-16T14:12:35;16.90;99.90
23147;DHT22;11742;53.532;-1.478;2024-02-16T14:15:20;17.00;99.90
23147;DHT22;11742;53.532;-1.478;2024-02-16T14:18:05;17.10;99.90
23147;DHT22;11742;53.532;-1.478;2024-02-16T14:20:51;17.10;99.90
23147;DHT22;11742;53.532;-1.478;2024-02-16T14:23:36;17.20;99.90
23147;DHT22;11742;53.532;-1.478;2024-02-16T14:26:21;17.20;99.90
23147;DHT22;11742;53.532;-1.478;2024-02-16T14:29:08;17.30;99.90
23147;DHT22;11742;53.532;-1.478;2024-02-16T14:31:55;17.30;99.90
23147;DHT22;11742;53.532;-1.478;2024-02-16T14:34:40;17.30;99.90
23147;DHT22;11742;53.532;-1.478;2024-02-16T14:37:26;17.40;99.90
23147;DHT22;11742;53.532;-1.478;2024-02-16T14:40:13;17.40;99.90
23147;DHT22;11742;53.532;-1.478;2024-02-16T14:42:58;17.40;99.90
23147;DHT22;11742;53.532;-1.478;2024-02-16T14:45:43;17.40;99.90
23147;DHT22;11742;53.532;-1.478;2024-02-16T14:48:27;17.50;99.90
23147;DHT22;11742;53.532;-1.478;2024-02-16T14:51:12;17.50;99.90
23147;DHT22;11742;53.532;-1.478;2024-02-16T14:53:57;17.50;99.90
23147;DHT22;11742;53.532;-1.478;2024-02-16T14:56:41;17.60;99.90
23147;DHT22;11742;53.532;-1.478;2024-02-16T14:59:25;17.60;99.90
23147;DHT22;11742;53.532;-1.478;2024-02-16T15:02:10;17.70;99.90
23147;DHT22;11742;53.532;-1.478;2024-02-16T15:04:55;17.60;99.90
23147;DHT22;11742;53.532;-1.478;2024-02-16T15:07:40;17.70;99.90
23147;DHT22;11742;53.532;-1.478;2024-02-16T15:10:25;17.70;99.90
23147;DHT22;11742;53.532;-1.478;2024-02-16T15:13:09;17.70;99.90
23147;DHT22;11742;53.532;-1.478;2024-02-16T15:15:55;17.80;99.90
23147;DHT22;11742;53.532;-1.478;2024-02-16T15:18:39;17.80;99.90
23147;DHT22;11742;53.532;-1.478;2024-02-16T15:21:24;17.80;99.90
23147;DHT22;11742;53.532;-1.478;2024-02-16T15:24:11;17.80;99.90
23147;DHT22;11742;53.532;-1.478;2024-02-16T15:26:55;17.80;99.90
23147;DHT22;11742;53.532;-1.478;2024-02-16T15:29:39;17.80;99.90
23147;DHT22;11742;53.532;-1.478;2024-02-16T15:32:24;17.80;99.90
23147;DHT22;11742;53.532;-1.478;2024-02-16T15:35:10;17.80;99.90
23147;DHT22;11742;53.532;-1.478;2024-02-16T15:37:56;17.80;99.90
23147;DHT22;11742;53.532;-1.478;2024-02-16T15:40:40;17.80;99.90
23147;DHT22;11742;53.532;-1.478;2024-02-16T15:43:25;17.80;99.90
23147;DHT22;11742;53.532;-1.478;2024-02-16T15:46:09;17.80;99.90
23147;DHT22;11742;53.532;-1.478;2024-02-16T15:48:53;17.80;99.90
23147;DHT22;11742;53.532;-1.478;2024-02-16T15:51:37;17.80;99.90
23147;DHT22;11742;53.532;-1.478;2024-02-16T15:54:22;17.80;99.90
23147;DHT22;11742;53.532;-1.478;2024-02-16T15:57:09;17.80;99.90
23147;DHT22;11742;53.532;-1.478;2024-02-16T15:59:54;17.70;99.90
23147;DHT22;11742;53.532;-1.478;2024-02-16T16:02:38;17.70;99.90
23147;DHT22;11742;53.532;-1.478;2024-02-16T16:05:22;17.70;99.90
23147;DHT22;11742;53.532;-1.478;2024-02-16T16:08:07;17.70;99.90
23147;DHT22;11742;53.532;-1.478;2024-02-16T16:10:51;17.70;99.90
23147;DHT22;11742;53.532;-1.478;2024-02-16T16:13:36;17.70;99.90
23147;DHT22;11742;53.532;-1.478;2024-02-16T16:16:21;17.60;99.90
23147;DHT22;11742;53.532;-1.478;2024-02-16T16:19:06;17.60;99.90
23147;DHT22;11742;53.532;-1.478;2024-02-16T16:21:51;17.60;99.90
23147;DHT22;11742;53.532;-1.478;2024-02-16T16:24:36;17.40;99.90
23147;DHT22;11742;53.532;-1.478;2024-02-16T16:27:21;17.40;99.90
23147;DHT22;11742;53.532;-1.478;2024-02-16T16:30:06;17.40;99.90
23147;DHT22;11742;53.532;-1.478;2024-02-16T16:32:51;17.30;99.90
23147;DHT22;11742;53.532;-1.478;2024-02-16T16:35:36;17.30;99.90
23147;DHT22;11742;53.532;-1.478;2024-02-16T16:38:25;17.30;99.90
23147;DHT22;11742;53.532;-1.478;2024-02-16T16:41:10;17.30;99.90
23147;DHT22;11742;53.532;-1.478;2024-02-16T16:43:54;17.30;99.90
23147;DHT22;11742;53.532;-1.478;2024-02-16T16:46:39;17.20;99.90
23147;DHT22;11742;53.532;-1.478;2024-02-16T16:49:23;17.20;99.90
23147;DHT22;11742;53.532;-1.478;2024-02-16T16:52:09;17.20;99.90
23147;DHT22;11742;53.532;-1.478;2024-02-16T16:54:53;17.20;99.90
23147;DHT22;11742;53.532;-1.478;2024-02-16T16:57:38;17.00;99.90
23147;DHT22;11742;53.532;-1.478;2024-02-16T17:00:22;16.70;99.90
23147;DHT22;11742;53.532;-1.478;2024-02-16T17:03:07;16.50;99.90
23147;DHT22;11742;53.532;-1.478;2024-02-16T17:05:52;16.20;99.90
23147;DHT22;11742;53.532;-1.478;2024-02-16T17:08:37;16.10;99.90
23147;DHT22;11742;53.532;-1.478;2024-02-16T17:11:21;16.10;99.90